sensor_id;sensor_type;location;lat;lon;timestamp;P1;durP1;ratioP1;P2;durP2;ratioP2
38909;SDS011;24676;51.360;12.354;2023-10-13T00:01:36;10.45;;;5.75;;
38909;SDS011;24676;51.360;12.354;2023-10-13T00:04:21;6.10;;;4.90;;
38909;SDS011;24676;51.360;12.354;2023-10-13T00:07:06;12.00;;;5.78;;
38909;SDS011;24676;51.360;12.354;2023-10-13T00:09:52;13.93;;;5.72;;
38909;SDS011;24676;51.360;12.354;2023-10-13T00:12:37;9.18;;;6.18;;
38909;SDS011;24676;51.360;12.354;2023-10-13T00:15:21;9.38;;;6.13;;
38909;SDS011;24676;51.360;12.354;2023-10-13T00:18:11;12.93;;;6.53;;
38909;SDS011;24676;51.360;12.354;2023-10-13T00:20:56;7.93;;;5.43;;
38909;SDS011;24676;51.360;12.354;2023-10-13T00:23:40;9.43;;;5.05;;
38909;SDS011;24676;51.360;12.354;2023-10-13T00:26:36;6.15;;;4.97;;
38909;SDS011;24676;51.360;12.354;2023-10-13T00:29:20;10.43;;;5.28;;
38909;SDS011;24676;51.360;12.354;2023-10-13T00:32:12;7.65;;;4.68;;
38909;SDS011;24676;51.360;12.354;2023-10-13T00:34:59;6.10;;;5.07;;
38909;SDS011;24676;51.360;12.354;2023-10-13T00:37:49;12.95;;;6.55;;
38909;SDS011;24676;51.360;12.354;2023-10-13T00:40:36;7.05;;;4.68;;
38909;SDS011;24676;51.360;12.354;2023-10-13T00:43:22;6.70;;;4.13;;
38909;SDS011;24676;51.360;12.354;2023-10-13T00:46:06;7.18;;;4.72;;
38909;SDS011;24676;51.360;12.354;2023-10-13T00:48:51;9.10;;;5.25;;
38909;SDS011;24676;51.360;12.354;2023-10-13T00:51:36;10.07;;;5.10;;
38909;SDS011;24676;51.360;12.354;2023-10-13T00:54:24;8.73;;;3.85;;
38909;SDS011;24676;51.360;12.354;2023-10-13T00:57:11;10.93;;;4.45;;
38909;SDS011;24676;51.360;12.354;2023-10-13T01:00:12;10.33;;;4.33;;
38909;SDS011;24676;51.360;12.354;2023-10-13T01:03:02;9.68;;;4.68;;
38909;SDS011;24676;51.360;12.354;2023-10-13T01:05:50;7.90;;;4.93;;
38909;SDS011;24676;51.360;12.354;2023-10-13T01:08:37;13.98;;;4.57;;
38909;SDS011;24676;51.360;12.354;2023-10-13T01:11:22;6.68;;;4.95;;
38909;SDS011;24676;51.360;12.354;2023-10-13T01:14:10;6.55;;;4.30;;
38909;SDS011;24676;51.360;12.354;2023-10-13T01:16:55;9.10;;;4.93;;
38909;SDS011;24676;51.360;12.354;2023-10-13T01:19:42;10.38;;;5.22;;
38909;SDS011;24676;51.360;12.354;2023-10-13T01:22:26;5.57;;;4.00;;
38909;SDS011;24676;51.360;12.354;2023-10-13T01:25:14;11.80;;;4.68;;
38909;SDS011;24676;51.360;12.354;2023-10-13T01:28:02;9.45;;;4.88;;
38909;SDS011;24676;51.360;12.354;2023-10-13T01:30:47;5.88;;;4.53;;
38909;SDS011;24676;51.360;12.354;2023-10-13T01:33:35;8.50;;;4.70;;
38909;SDS011;24676;51.360;12.354;2023-10-13T01:36:22;8.02;;;4.40;;
38909;SDS011;24676;51.360;12.354;2023-10-13T01:39:07;9.98;;;5.00;;
38909;SDS011;24676;51.360;12.354;2023-10-13T01:41:55;8.60;;;4.18;;
38909;SDS011;24676;51.360;12.354;2023-10-13T01:44:39;10.32;;;4.88;;
38909;SDS011;24676;51.360;12.354;2023-10-13T01:47:23;13.52;;;5.70;;
38909;SDS011;24676;51.360;12.354;2023-10-13T01:50:07;8.85;;;5.07;;
38909;SDS011;24676;51.360;12.354;2023-10-13T01:53:17;6.90;;;4.28;;
38909;SDS011;24676;51.360;12.354;2023-10-13T01:56:03;5.65;;;4.30;;
38909;SDS011;24676;51.360;12.354;2023-10-13T01:58:55;8.48;;;4.55;;
38909;SDS011;24676;51.360;12.354;2023-10-13T02:01:39;6.05;;;3.83;;
38909;SDS011;24676;51.360;12.354;2023-10-13T02:04:24;5.45;;;3.70;;
38909;SDS011;24676;51.360;12.354;2023-10-13T02:07:09;9.07;;;4.57;;
38909;SDS011;24676;51.360;12.354;2023-10-13T02:09:58;11.07;;;6.10;;
38909;SDS011;24676;51.360;12.354;2023-10-13T02:12:42;7.57;;;3.80;;
38909;SDS011;24676;51.360;12.354;2023-10-13T02:15:26;8.18;;;4.32;;
38909;SDS011;24676;51.360;12.354;2023-10-13T02:18:14;7.47;;;3.92;;
38909;SDS011;24676;51.360;12.354;2023-10-13T02:21:11;5.35;;;3.97;;
38909;SDS011;24676;51.360;12.354;2023-10-13T02:23:58;6.30;;;4.30;;
38909;SDS011;24676;51.360;12.354;2023-10-13T02:26:48;5.60;;;4.00;;
38909;SDS011;24676;51.360;12.354;2023-10-13T02:29:33;8.02;;;3.83;;
38909;SDS011;24676;51.360;12.354;2023-10-13T02:32:23;6.10;;;4.25;;
38909;SDS011;24676;51.360;12.354;2023-10-13T02:35:11;6.10;;;3.25;;
38909;SDS011;24676;51.360;12.354;2023-10-13T02:38:01;5.13;;;3.17;;
38909;SDS011;24676;51.360;12.354;2023-10-13T02:40:54;6.72;;;4.53;;
38909;SDS011;24676;51.360;12.354;2023-10-13T02:43:40;4.57;;;3.17;;
38909;SDS011;24676;51.360;12.354;2023-10-13T02:46:26;5.80;;;4.18;;
38909;SDS011;24676;51.360;12.354;2023-10-13T02:49:13;4.95;;;3.78;;
38909;SDS011;24676;51.360;12.354;2023-10-13T02:51:57;7.97;;;5.40;;
38909;SDS011;24676;51.360;12.354;2023-10-13T02:54:44;7.32;;;3.67;;
38909;SDS011;24676;51.360;12.354;2023-10-13T02:57:34;6.63;;;3.58;;
38909;SDS011;24676;51.360;12.354;2023-10-13T03:00:18;6.25;;;4.25;;
38909;SDS011;24676;51.360;12.354;2023-10-13T03:03:06;6.63;;;3.78;;
38909;SDS011;24676;51.360;12.354;2023-10-13T03:05:51;5.32;;;3.60;;
38909;SDS011;24676;51.360;12.354;2023-10-13T03:08:35;4.63;;;3.15;;
38909;SDS011;24676;51.360;12.354;2023-10-13T03:11:20;5.75;;;4.60;;
38909;SDS011;24676;51.360;12.354;2023-10-13T03:14:05;4.82;;;4.28;;
38909;SDS011;24676;51.360;12.354;2023-10-13T03:16:54;9.85;;;4.65;;
38909;SDS011;24676;51.360;12.354;2023-10-13T03:19:48;6.40;;;4.72;;
38909;SDS011;24676;51.360;12.354;2023-10-13T03:22:35;8.65;;;4.57;;
38909;SDS011;24676;51.360;12.354;2023-10-13T03:25:20;7.13;;;4.70;;
38909;SDS011;24676;51.360;12.354;2023-10-13T03:28:08;6.68;;;4.80;;
38909;SDS011;24676;51.360;12.354;2023-10-13T03:30:57;7.22;;;4.20;;
38909;SDS011;24676;51.360;12.354;2023-10-13T03:33:44;5.25;;;4.03;;
38909;SDS011;24676;51.360;12.354;2023-10-13T03:36:30;6.22;;;3.92;;
38909;SDS011;24676;51.360;12.354;2023-10-13T03:39:33;5.88;;;4.93;;
38909;SDS011;24676;51.360;12.354;2023-10-13T03:42:17;7.45;;;4.40;;
38909;SDS011;24676;51.360;12.354;2023-10-13T03:45:05;9.60;;;4.18;;
38909;SDS011;24676;51.360;12.354;2023-10-13T03:47:54;9.52;;;4.20;;
38909;SDS011;24676;51.360;12.354;2023-10-13T03:50:38;9.43;;;4.55;;
38909;SDS011;24676;51.360;12.354;2023-10-13T03:53:45;7.85;;;5.13;;
38909;SDS011;24676;51.360;12.354;2023-10-13T03:56:38;10.15;;;5.57;;
38909;SDS011;24676;51.360;12.354;2023-10-13T03:59:22;6.53;;;4.93;;
38909;SDS011;24676;51.360;12.354;2023-10-13T04:02:06;10.85;;;5.05;;
38909;SDS011;24676;51.360;12.354;2023-10-13T04:04:57;7.78;;;4.97;;
38909;SDS011;24676;51.360;12.354;2023-10-13T04:07:50;10.18;;;6.03;;
38909;SDS011;24676;51.360;12.354;2023-10-13T04:10:54;10.15;;;5.60;;
38909;SDS011;24676;51.360;12.354;2023-10-13T04:13:39;10.85;;;5.38;;
38909;SDS011;24676;51.360;12.354;2023-10-13T04:16:23;7.80;;;5.28;;
38909;SDS011;24676;51.360;12.354;2023-10-13T04:19:07;9.80;;;4.68;;
38909;SDS011;24676;51.360;12.354;2023-10-13T04:21:52;9.82;;;5.40;;
38909;SDS011;24676;51.360;12.354;2023-10-13T04:24:41;7.38;;;4.82;;
38909;SDS011;24676;51.360;12.354;2023-10-13T04:27:37;6.35;;;4.95;;
38909;SDS011;24676;51.360;12.354;2023-10-13T04:30:37;11.98;;;5.15;;
38909;SDS011;24676;51.360;12.354;2023-10-13T04:33:40;12.43;;;5.38;;
38909;SDS011;24676;51.360;12.354;2023-10-13T04:36:39;8.27;;;5.05;;
38909;SDS011;24676;51.360;12.354;2023-10-13T04:39:29;11.07;;;5.90;;
38909;SDS011;24676;51.360;12.354;2023-10-13T04:42:18;7.30;;;4.30;;
38909;SDS011;24676;51.360;12.354;2023-10-13T04:45:23;14.05;;;5.60;;
38909;SDS011;24676;51.360;12.354;2023-10-13T04:48:16;5.68;;;3.80;;
38909;SDS011;24676;51.360;12.354;2023-10-13T04:51:01;7.13;;;4.80;;
38909;SDS011;24676;51.360;12.354;2023-10-13T04:54:04;10.45;;;5.10;;
38909;SDS011;24676;51.360;12.354;2023-10-13T04:56:56;7.25;;;3.63;;
38909;SDS011;24676;51.360;12.354;2023-10-13T04:59:59;7.90;;;3.65;;
38909;SDS011;24676;51.360;12.354;2023-10-13T05:02:56;8.90;;;4.25;;
38909;SDS011;24676;51.360;12.354;2023-10-13T05:05:43;7.78;;;5.25;;
38909;SDS011;24676;51.360;12.354;2023-10-13T05:08:29;9.85;;;3.92;;
38909;SDS011;24676;51.360;12.354;2023-10-13T05:11:32;7.05;;;4.57;;
38909;SDS011;24676;51.360;12.354;2023-10-13T05:14:35;5.40;;;4.25;;
38909;SDS011;24676;51.360;12.354;2023-10-13T05:17:37;7.47;;;3.72;;
38909;SDS011;24676;51.360;12.354;2023-10-13T05:20:40;8.13;;;4.03;;
38909;SDS011;24676;51.360;12.354;2023-10-13T05:23:43;6.68;;;4.20;;
38909;SDS011;24676;51.360;12.354;2023-10-13T05:26:46;7.75;;;3.67;;
38909;SDS011;24676;51.360;12.354;2023-10-13T05:29:49;9.82;;;4.75;;
38909;SDS011;24676;51.360;12.354;2023-10-13T05:32:52;10.95;;;5.10;;
38909;SDS011;24676;51.360;12.354;2023-10-13T05:35:55;13.88;;;4.63;;
38909;SDS011;24676;51.360;12.354;2023-10-13T05:38:58;10.15;;;4.13;;
38909;SDS011;24676;51.360;12.354;2023-10-13T05:42:01;8.02;;;4.32;;
38909;SDS011;24676;51.360;12.354;2023-10-13T05:45:04;6.03;;;4.18;;
38909;SDS011;24676;51.360;12.354;2023-10-13T05:48:01;6.55;;;4.18;;
38909;SDS011;24676;51.360;12.354;2023-10-13T05:50:47;7.03;;;4.45;;
38909;SDS011;24676;51.360;12.354;2023-10-13T05:53:53;17.63;;;4.55;;
38909;SDS011;24676;51.360;12.354;2023-10-13T05:57:13;6.75;;;4.68;;
38909;SDS011;24676;51.360;12.354;2023-10-13T06:00:16;8.65;;;3.97;;
38909;SDS011;24676;51.360;12.354;2023-10-13T06:03:19;8.38;;;5.30;;
38909;SDS011;24676;51.360;12.354;2023-10-13T06:18:37;6.97;;;4.38;;
38909;SDS011;24676;51.360;12.354;2023-10-13T06:21:40;7.10;;;4.20;;
38909;SDS011;24676;51.360;12.354;2023-10-13T06:24:44;7.88;;;4.15;;
38909;SDS011;24676;51.360;12.354;2023-10-13T06:27:47;7.03;;;5.63;;
38909;SDS011;24676;51.360;12.354;2023-10-13T06:33:41;10.40;;;5.25;;
38909;SDS011;24676;51.360;12.354;2023-10-13T06:36:29;6.60;;;5.05;;
38909;SDS011;24676;51.360;12.354;2023-10-13T06:39:13;8.10;;;5.07;;
38909;SDS011;24676;51.360;12.354;2023-10-13T06:42:16;8.40;;;5.25;;
38909;SDS011;24676;51.360;12.354;2023-10-13T06:45:02;8.13;;;4.35;;
38909;SDS011;24676;51.360;12.354;2023-10-13T06:47:51;6.32;;;4.50;;
38909;SDS011;24676;51.360;12.354;2023-10-13T06:50:37;11.18;;;4.63;;
38909;SDS011;24676;51.360;12.354;2023-10-13T06:53:25;12.95;;;4.90;;
38909;SDS011;24676;51.360;12.354;2023-10-13T06:56:11;8.63;;;5.68;;
38909;SDS011;24676;51.360;12.354;2023-10-13T06:59:00;11.57;;;4.65;;
38909;SDS011;24676;51.360;12.354;2023-10-13T07:01:48;7.00;;;3.95;;
38909;SDS011;24676;51.360;12.354;2023-10-13T07:04:32;9.57;;;4.68;;
38909;SDS011;24676;51.360;12.354;2023-10-13T07:07:16;8.23;;;4.57;;
38909;SDS011;24676;51.360;12.354;2023-10-13T07:10:00;5.55;;;3.60;;
38909;SDS011;24676;51.360;12.354;2023-10-13T07:12:45;7.38;;;4.65;;
38909;SDS011;24676;51.360;12.354;2023-10-13T07:15:34;8.65;;;4.18;;
38909;SDS011;24676;51.360;12.354;2023-10-13T07:18:23;13.55;;;5.75;;
38909;SDS011;24676;51.360;12.354;2023-10-13T07:21:11;7.55;;;4.45;;
38909;SDS011;24676;51.360;12.354;2023-10-13T07:23:55;10.40;;;4.80;;
38909;SDS011;24676;51.360;12.354;2023-10-13T07:26:51;12.27;;;4.10;;
38909;SDS011;24676;51.360;12.354;2023-10-13T07:29:46;6.75;;;3.85;;
38909;SDS011;24676;51.360;12.354;2023-10-13T07:32:33;4.78;;;3.78;;
38909;SDS011;24676;51.360;12.354;2023-10-13T07:35:18;7.30;;;4.15;;
38909;SDS011;24676;51.360;12.354;2023-10-13T07:38:04;8.50;;;4.93;;
38909;SDS011;24676;51.360;12.354;2023-10-13T07:40:51;7.07;;;4.30;;
38909;SDS011;24676;51.360;12.354;2023-10-13T07:43:35;4.93;;;4.20;;
38909;SDS011;24676;51.360;12.354;2023-10-13T07:46:23;6.10;;;3.70;;
38909;SDS011;24676;51.360;12.354;2023-10-13T07:49:15;3.77;;;3.30;;
38909;SDS011;24676;51.360;12.354;2023-10-13T07:51:59;4.50;;;3.15;;
38909;SDS011;24676;51.360;12.354;2023-10-13T07:54:58;5.65;;;3.28;;
38909;SDS011;24676;51.360;12.354;2023-10-13T07:57:54;8.18;;;3.08;;
38909;SDS011;24676;51.360;12.354;2023-10-13T08:00:39;6.13;;;3.85;;
38909;SDS011;24676;51.360;12.354;2023-10-13T08:03:29;6.78;;;2.92;;
38909;SDS011;24676;51.360;12.354;2023-10-13T08:06:29;13.35;;;3.83;;
38909;SDS011;24676;51.360;12.354;2023-10-13T08:09:12;5.90;;;3.13;;
38909;SDS011;24676;51.360;12.354;2023-10-13T08:12:23;6.40;;;4.25;;
38909;SDS011;24676;51.360;12.354;2023-10-13T08:15:07;3.03;;;2.65;;
38909;SDS011;24676;51.360;12.354;2023-10-13T08:18:13;6.53;;;3.65;;
38909;SDS011;24676;51.360;12.354;2023-10-13T08:21:17;7.15;;;3.40;;
38909;SDS011;24676;51.360;12.354;2023-10-13T08:24:07;5.35;;;3.35;;
38909;SDS011;24676;51.360;12.354;2023-10-13T08:26:51;5.90;;;3.72;;
38909;SDS011;24676;51.360;12.354;2023-10-13T08:30:02;5.72;;;3.83;;
38909;SDS011;24676;51.360;12.354;2023-10-13T08:33:06;6.75;;;3.38;;
38909;SDS011;24676;51.360;12.354;2023-10-13T08:36:07;4.35;;;2.90;;
38909;SDS011;24676;51.360;12.354;2023-10-13T08:39:14;8.98;;;3.53;;
38909;SDS011;24676;51.360;12.354;2023-10-13T08:42:17;10.45;;;3.80;;
38909;SDS011;24676;51.360;12.354;2023-10-13T08:45:07;7.10;;;3.45;;
38909;SDS011;24676;51.360;12.354;2023-10-13T08:48:13;11.10;;;3.75;;
38909;SDS011;24676;51.360;12.354;2023-10-13T08:50:58;5.25;;;2.80;;
38909;SDS011;24676;51.360;12.354;2023-10-13T08:53:47;5.55;;;3.42;;
38909;SDS011;24676;51.360;12.354;2023-10-13T08:56:42;7.85;;;3.42;;
38909;SDS011;24676;51.360;12.354;2023-10-13T08:59:31;8.20;;;4.63;;
38909;SDS011;24676;51.360;12.354;2023-10-13T09:02:36;7.65;;;3.17;;
38909;SDS011;24676;51.360;12.354;2023-10-13T09:05:39;7.57;;;2.83;;
38909;SDS011;24676;51.360;12.354;2023-10-13T09:08:27;8.18;;;4.43;;
38909;SDS011;24676;51.360;12.354;2023-10-13T09:11:31;6.07;;;3.40;;
38909;SDS011;24676;51.360;12.354;2023-10-13T09:14:32;3.47;;;3.17;;
38909;SDS011;24676;51.360;12.354;2023-10-13T09:17:19;11.65;;;3.63;;
38909;SDS011;24676;51.360;12.354;2023-10-13T09:20:04;15.93;;;4.18;;
38909;SDS011;24676;51.360;12.354;2023-10-13T09:26:09;4.63;;;3.17;;
38909;SDS011;24676;51.360;12.354;2023-10-13T09:28:53;9.38;;;3.15;;
38909;SDS011;24676;51.360;12.354;2023-10-13T09:31:38;7.07;;;4.15;;
38909;SDS011;24676;51.360;12.354;2023-10-13T09:34:22;6.40;;;3.03;;
38909;SDS011;24676;51.360;12.354;2023-10-13T09:37:07;5.50;;;3.20;;
38909;SDS011;24676;51.360;12.354;2023-10-13T09:39:54;6.05;;;3.33;;
38909;SDS011;24676;51.360;12.354;2023-10-13T09:42:48;4.80;;;3.25;;
38909;SDS011;24676;51.360;12.354;2023-10-13T09:45:32;16.60;;;2.95;;
38909;SDS011;24676;51.360;12.354;2023-10-13T09:48:23;5.80;;;2.97;;
38909;SDS011;24676;51.360;12.354;2023-10-13T09:51:16;12.02;;;4.55;;
38909;SDS011;24676;51.360;12.354;2023-10-13T09:54:07;7.95;;;4.47;;
38909;SDS011;24676;51.360;12.354;2023-10-13T09:57:13;6.10;;;3.33;;
38909;SDS011;24676;51.360;12.354;2023-10-13T10:00:06;8.20;;;3.63;;
38909;SDS011;24676;51.360;12.354;2023-10-13T10:03:16;6.85;;;3.60;;
38909;SDS011;24676;51.360;12.354;2023-10-13T10:06:22;6.85;;;3.28;;
38909;SDS011;24676;51.360;12.354;2023-10-13T10:09:13;9.73;;;3.45;;
38909;SDS011;24676;51.360;12.354;2023-10-13T10:17:50;8.15;;;4.22;;
38909;SDS011;24676;51.360;12.354;2023-10-13T10:20:37;7.10;;;4.18;;
38909;SDS011;24676;51.360;12.354;2023-10-13T10:23:28;9.02;;;3.35;;
38909;SDS011;24676;51.360;12.354;2023-10-13T10:26:19;16.75;;;3.45;;
38909;SDS011;24676;51.360;12.354;2023-10-13T10:29:12;6.03;;;2.92;;
38909;SDS011;24676;51.360;12.354;2023-10-13T10:31:58;4.22;;;2.70;;
38909;SDS011;24676;51.360;12.354;2023-10-13T10:34:43;11.68;;;3.35;;
38909;SDS011;24676;51.360;12.354;2023-10-13T10:37:30;8.20;;;3.88;;
38909;SDS011;24676;51.360;12.354;2023-10-13T10:40:18;7.38;;;3.63;;
38909;SDS011;24676;51.360;12.354;2023-10-13T10:43:21;6.65;;;3.03;;
38909;SDS011;24676;51.360;12.354;2023-10-13T10:46:10;8.63;;;3.10;;
38909;SDS011;24676;51.360;12.354;2023-10-13T10:49:03;7.63;;;3.20;;
38909;SDS011;24676;51.360;12.354;2023-10-13T10:51:48;12.40;;;4.07;;
38909;SDS011;24676;51.360;12.354;2023-10-13T10:54:32;6.60;;;3.30;;
38909;SDS011;24676;51.360;12.354;2023-10-13T10:57:16;8.32;;;3.45;;
38909;SDS011;24676;51.360;12.354;2023-10-13T11:00:01;10.93;;;2.97;;
38909;SDS011;24676;51.360;12.354;2023-10-13T11:02:58;7.78;;;3.63;;
38909;SDS011;24676;51.360;12.354;2023-10-13T11:05:45;17.88;;;4.28;;
38909;SDS011;24676;51.360;12.354;2023-10-13T11:08:30;6.82;;;3.25;;
38909;SDS011;24676;51.360;12.354;2023-10-13T11:11:15;7.50;;;2.83;;
38909;SDS011;24676;51.360;12.354;2023-10-13T11:14:01;6.53;;;3.15;;
38909;SDS011;24676;51.360;12.354;2023-10-13T11:17:01;12.82;;;5.35;;
38909;SDS011;24676;51.360;12.354;2023-10-13T11:19:56;7.43;;;3.25;;
38909;SDS011;24676;51.360;12.354;2023-10-13T11:22:40;12.80;;;3.45;;
38909;SDS011;24676;51.360;12.354;2023-10-13T11:25:30;11.20;;;3.58;;
38909;SDS011;24676;51.360;12.354;2023-10-13T11:28:19;7.05;;;3.03;;
38909;SDS011;24676;51.360;12.354;2023-10-13T11:31:03;15.48;;;4.05;;
38909;SDS011;24676;51.360;12.354;2023-10-13T11:34:03;8.15;;;4.05;;
38909;SDS011;24676;51.360;12.354;2023-10-13T11:36:49;10.38;;;3.17;;
38909;SDS011;24676;51.360;12.354;2023-10-13T11:39:34;21.02;;;3.90;;
38909;SDS011;24676;51.360;12.354;2023-10-13T11:42:25;11.83;;;2.97;;
38909;SDS011;24676;51.360;12.354;2023-10-13T11:45:11;8.07;;;2.75;;
38909;SDS011;24676;51.360;12.354;2023-10-13T11:48:14;5.43;;;3.13;;
38909;SDS011;24676;51.360;12.354;2023-10-13T11:51:00;15.25;;;2.88;;
38909;SDS011;24676;51.360;12.354;2023-10-13T11:53:49;11.68;;;4.03;;
38909;SDS011;24676;51.360;12.354;2023-10-13T11:56:36;7.97;;;3.28;;
38909;SDS011;24676;51.360;12.354;2023-10-13T11:59:22;10.95;;;2.70;;
38909;SDS011;24676;51.360;12.354;2023-10-13T12:02:11;8.27;;;3.10;;
38909;SDS011;24676;51.360;12.354;2023-10-13T12:05:10;8.18;;;3.15;;
38909;SDS011;24676;51.360;12.354;2023-10-13T12:07:55;7.18;;;2.85;;
38909;SDS011;24676;51.360;12.354;2023-10-13T12:10:47;6.70;;;3.55;;
38909;SDS011;24676;51.360;12.354;2023-10-13T12:13:43;7.85;;;3.65;;
38909;SDS011;24676;51.360;12.354;2023-10-13T12:16:28;5.38;;;4.32;;
38909;SDS011;24676;51.360;12.354;2023-10-13T12:19:24;8.18;;;2.83;;
38909;SDS011;24676;51.360;12.354;2023-10-13T12:22:10;9.27;;;3.05;;
38909;SDS011;24676;51.360;12.354;2023-10-13T12:25:00;11.88;;;3.35;;
38909;SDS011;24676;51.360;12.354;2023-10-13T12:27:49;6.28;;;2.92;;
38909;SDS011;24676;51.360;12.354;2023-10-13T12:30:39;14.70;;;3.75;;
38909;SDS011;24676;51.360;12.354;2023-10-13T12:33:32;14.77;;;3.15;;
38909;SDS011;24676;51.360;12.354;2023-10-13T12:36:24;5.45;;;3.97;;
38909;SDS011;24676;51.360;12.354;2023-10-13T12:39:14;7.60;;;3.15;;
38909;SDS011;24676;51.360;12.354;2023-10-13T12:42:18;20.52;;;3.95;;
38909;SDS011;24676;51.360;12.354;2023-10-13T12:45:39;6.95;;;3.03;;
38909;SDS011;24676;51.360;12.354;2023-10-13T12:48:42;11.43;;;2.72;;
38909;SDS011;24676;51.360;12.354;2023-10-13T12:51:45;6.90;;;3.08;;
38909;SDS011;24676;51.360;12.354;2023-10-13T12:54:35;8.30;;;3.03;;
38909;SDS011;24676;51.360;12.354;2023-10-13T12:57:19;7.40;;;3.60;;
38909;SDS011;24676;51.360;12.354;2023-10-13T13:00:06;6.65;;;4.10;;
38909;SDS011;24676;51.360;12.354;2023-10-13T13:03:00;8.30;;;3.65;;
38909;SDS011;24676;51.360;12.354;2023-10-13T13:05:54;7.65;;;3.08;;
38909;SDS011;24676;51.360;12.354;2023-10-13T13:08:39;6.43;;;3.00;;
38909;SDS011;24676;51.360;12.354;2023-10-13T13:11:27;6.88;;;3.33;;
38909;SDS011;24676;51.360;12.354;2023-10-13T13:14:15;4.28;;;2.88;;
38909;SDS011;24676;51.360;12.354;2023-10-13T13:16:59;10.02;;;3.28;;
38909;SDS011;24676;51.360;12.354;2023-10-13T13:19:50;28.85;;;4.72;;
38909;SDS011;24676;51.360;12.354;2023-10-13T13:22:34;13.40;;;3.80;;
38909;SDS011;24676;51.360;12.354;2023-10-13T13:25:18;7.93;;;3.03;;
38909;SDS011;24676;51.360;12.354;2023-10-13T13:28:09;8.20;;;4.13;;
38909;SDS011;24676;51.360;12.354;2023-10-13T13:30:54;7.95;;;3.15;;
38909;SDS011;24676;51.360;12.354;2023-10-13T13:33:39;6.03;;;2.70;;
38909;SDS011;24676;51.360;12.354;2023-10-13T13:36:27;5.45;;;2.85;;
38909;SDS011;24676;51.360;12.354;2023-10-13T13:39:11;13.48;;;3.13;;
38909;SDS011;24676;51.360;12.354;2023-10-13T13:41:56;7.40;;;2.95;;
38909;SDS011;24676;51.360;12.354;2023-10-13T13:44:43;7.60;;;2.75;;
38909;SDS011;24676;51.360;12.354;2023-10-13T13:47:30;4.88;;;3.30;;
38909;SDS011;24676;51.360;12.354;2023-10-13T13:50:17;7.75;;;3.17;;
38909;SDS011;24676;51.360;12.354;2023-10-13T13:53:07;10.85;;;3.10;;
38909;SDS011;24676;51.360;12.354;2023-10-13T13:55:53;10.73;;;3.67;;
38909;SDS011;24676;51.360;12.354;2023-10-13T13:58:38;6.15;;;3.28;;
38909;SDS011;24676;51.360;12.354;2023-10-13T14:01:22;10.63;;;3.10;;
38909;SDS011;24676;51.360;12.354;2023-10-13T14:04:09;10.10;;;3.30;;
38909;SDS011;24676;51.360;12.354;2023-10-13T14:06:53;5.13;;;3.20;;
38909;SDS011;24676;51.360;12.354;2023-10-13T14:09:38;6.43;;;3.97;;
38909;SDS011;24676;51.360;12.354;2023-10-13T14:12:27;7.28;;;2.90;;
38909;SDS011;24676;51.360;12.354;2023-10-13T14:15:25;4.45;;;3.42;;
38909;SDS011;24676;51.360;12.354;2023-10-13T14:18:10;9.32;;;3.22;;
38909;SDS011;24676;51.360;12.354;2023-10-13T14:21:01;12.03;;;3.17;;
38909;SDS011;24676;51.360;12.354;2023-10-13T14:23:48;4.65;;;2.95;;
38909;SDS011;24676;51.360;12.354;2023-10-13T14:26:33;9.15;;;3.45;;
38909;SDS011;24676;51.360;12.354;2023-10-13T14:29:18;6.13;;;3.03;;
38909;SDS011;24676;51.360;12.354;2023-10-13T14:32:03;7.50;;;3.13;;
38909;SDS011;24676;51.360;12.354;2023-10-13T14:34:47;5.85;;;4.00;;
38909;SDS011;24676;51.360;12.354;2023-10-13T14:37:37;10.07;;;3.35;;
38909;SDS011;24676;51.360;12.354;2023-10-13T14:40:21;8.35;;;3.30;;
38909;SDS011;24676;51.360;12.354;2023-10-13T14:43:05;7.70;;;3.75;;
38909;SDS011;24676;51.360;12.354;2023-10-13T14:45:51;13.95;;;3.80;;
38909;SDS011;24676;51.360;12.354;2023-10-13T14:48:36;5.97;;;2.90;;
38909;SDS011;24676;51.360;12.354;2023-10-13T14:51:22;9.70;;;3.20;;
38909;SDS011;24676;51.360;12.354;2023-10-13T14:54:09;10.05;;;3.05;;
38909;SDS011;24676;51.360;12.354;2023-10-13T14:56:53;9.27;;;3.33;;
38909;SDS011;24676;51.360;12.354;2023-10-13T14:59:38;3.47;;;2.72;;
38909;SDS011;24676;51.360;12.354;2023-10-13T15:02:23;7.10;;;3.13;;
38909;SDS011;24676;51.360;12.354;2023-10-13T15:05:07;10.65;;;3.35;;
38909;SDS011;24676;51.360;12.354;2023-10-13T15:07:51;12.52;;;4.63;;
38909;SDS011;24676;51.360;12.354;2023-10-13T15:10:35;6.30;;;2.95;;
38909;SDS011;24676;51.360;12.354;2023-10-13T15:13:20;6.82;;;3.00;;
38909;SDS011;24676;51.360;12.354;2023-10-13T15:16:16;6.63;;;4.85;;
38909;SDS011;24676;51.360;12.354;2023-10-13T15:19:02;8.02;;;3.30;;
38909;SDS011;24676;51.360;12.354;2023-10-13T15:21:48;8.45;;;3.83;;
38909;SDS011;24676;51.360;12.354;2023-10-13T15:24:36;4.22;;;2.80;;
38909;SDS011;24676;51.360;12.354;2023-10-13T15:27:28;5.72;;;3.33;;
38909;SDS011;24676;51.360;12.354;2023-10-13T15:30:13;8.20;;;3.25;;
38909;SDS011;24676;51.360;12.354;2023-10-13T15:33:07;7.95;;;3.33;;
38909;SDS011;24676;51.360;12.354;2023-10-13T15:35:52;6.22;;;3.50;;
38909;SDS011;24676;51.360;12.354;2023-10-13T15:38:37;6.95;;;3.55;;
38909;SDS011;24676;51.360;12.354;2023-10-13T15:41:24;7.57;;;2.90;;
38909;SDS011;24676;51.360;12.354;2023-10-13T15:44:11;7.45;;;3.15;;
38909;SDS011;24676;51.360;12.354;2023-10-13T15:46:57;8.95;;;3.05;;
38909;SDS011;24676;51.360;12.354;2023-10-13T15:49:42;7.72;;;2.90;;
38909;SDS011;24676;51.360;12.354;2023-10-13T15:52:26;7.05;;;3.38;;
38909;SDS011;24676;51.360;12.354;2023-10-13T15:55:10;5.97;;;3.72;;
38909;SDS011;24676;51.360;12.354;2023-10-13T15:57:58;10.07;;;3.53;;
38909;SDS011;24676;51.360;12.354;2023-10-13T16:00:43;6.55;;;2.65;;
38909;SDS011;24676;51.360;12.354;2023-10-13T16:03:28;5.07;;;3.45;;
38909;SDS011;24676;51.360;12.354;2023-10-13T16:06:13;4.68;;;2.95;;
38909;SDS011;24676;51.360;12.354;2023-10-13T16:08:57;6.85;;;3.33;;
38909;SDS011;24676;51.360;12.354;2023-10-13T16:11:41;7.25;;;3.50;;
38909;SDS011;24676;51.360;12.354;2023-10-13T16:14:26;17.10;;;3.33;;
38909;SDS011;24676;51.360;12.354;2023-10-13T16:17:10;5.40;;;3.25;;
38909;SDS011;24676;51.360;12.354;2023-10-13T16:19:54;6.50;;;3.03;;
38909;SDS011;24676;51.360;12.354;2023-10-13T16:22:38;10.55;;;2.78;;
38909;SDS011;24676;51.360;12.354;2023-10-13T16:25:23;5.07;;;3.17;;
38909;SDS011;24676;51.360;12.354;2023-10-13T16:28:07;6.32;;;2.60;;
38909;SDS011;24676;51.360;12.354;2023-10-13T16:30:52;6.80;;;2.92;;
38909;SDS011;24676;51.360;12.354;2023-10-13T16:33:39;7.85;;;2.13;;
38909;SDS011;24676;51.360;12.354;2023-10-13T16:36:24;5.55;;;2.88;;
38909;SDS011;24676;51.360;12.354;2023-10-13T16:39:09;6.57;;;3.40;;
38909;SDS011;24676;51.360;12.354;2023-10-13T16:41:54;8.90;;;2.50;;
38909;SDS011;24676;51.360;12.354;2023-10-13T16:44:38;9.60;;;2.42;;
38909;SDS011;24676;51.360;12.354;2023-10-13T16:47:23;6.93;;;3.17;;
38909;SDS011;24676;51.360;12.354;2023-10-13T16:50:06;7.07;;;2.55;;
38909;SDS011;24676;51.360;12.354;2023-10-13T16:52:51;7.88;;;2.35;;
38909;SDS011;24676;51.360;12.354;2023-10-13T16:55:36;8.80;;;2.95;;
38909;SDS011;24676;51.360;12.354;2023-10-13T16:58:25;7.55;;;3.72;;
38909;SDS011;24676;51.360;12.354;2023-10-13T17:01:11;9.93;;;3.67;;
38909;SDS011;24676;51.360;12.354;2023-10-13T17:03:56;6.38;;;3.22;;
38909;SDS011;24676;51.360;12.354;2023-10-13T17:06:40;7.65;;;3.67;;
38909;SDS011;24676;51.360;12.354;2023-10-13T17:09:24;12.68;;;3.53;;